x

Port Orford - 15 Nm West Of Port Orford, Or (46015) Wave Buoy

2:50am - Thu 29th Jun 2017 All times are PDT. -7 hours from GMT.

  • Sig Wave height 5.9ft
  • Swell Direction
  • Peak Period 8s
  • Average Period 6s
  • Wind
    18mph, 20mph gusts
  • Sea Temp 52°f
  • Air Temp 55°f
  • Sea Pressure 1017.9mb
  • Port Orford - 15 Nm West Of Port Orford, Or
  • Port Orford - 15 Nm West Of Port Orford, Or

More Historic Weather Station data

Upgrade to MSW Pro to gain access to the past 30 days of data for over 8000 Wavebouys and Weather Stations around the globe.

Join Pro

Comparision Forecast

View Surf forecast
   
Thu 06/29 2:50am 6ft 8s 6s 18 20 mph 1017.9mb 52f 55f
1:50am 6ft 10s 6s 18 20 mph 1017.9mb 52f 55f
12:50am 6.5ft 9s 6s 18 20 mph 1017.9mb 52f 54f
Wed 06/28 10:50pm 6ft 9s 6s 18 22 mph 1018.4mb 52f 55f
9:50pm 6ft 9s 6s 20 25 mph 1018.2mb 52f 55f
8:50pm 6ft 9s 6s 20 22 mph 1018mb 52f 55f
7:50pm 6.5ft 9s 6s 20 25 mph 1017.9mb 53f 56f
6:50pm 7ft 8s 6s 20 25 mph 1017.7mb 53f 56f
5:50pm 6.5ft 8s 6s 22 27 mph 1017.4mb 53f 56f
4:50pm 6ft 7s 6s 22 27 mph 1017.4mb 53f 56f
3:50pm 6ft 8s 6s 22 27 mph 1017.7mb 53f 56f
2:50pm 5.5ft 8s 6s 20 25 mph 1018mb 53f 56f
1:50pm 6ft 8s 6s 22 27 mph 1018.1mb 53f 56f
12:50pm 5.5ft 8s 6s 20 22 mph 1018.5mb 53f 55f
10:50am 5.5ft 8s 6s 18 20 mph 1018.4mb 52f 55f
9:50am 6ft 7s 6s 16 18 mph 1018.6mb 52f 55f
8:50am 5.5ft 9s 6s 18 20 mph 1018.1mb 52f 55f
7:50am 5.5ft 8s 6s 16 20 mph 1017.9mb 52f 55f
6:50am 6ft 9s 6s 18 20 mph 1017.6mb 51f 55f
5:50am 6.5ft 9s 6s 20 27 mph 1017.4mb 51f 56f
4:50am 6ft 9s 6s 18 22 mph 1017.2mb 51f 55f
3:50am 5.5ft 8s 6s 18 22 mph 1017mb 52f 55f
2:50am 6ft 8s 6s 18 20 mph 1016.9mb 52f 55f
1:50am 6ft 8s 6s 16 18 mph 1017.1mb 52f 55f
12:50am 6ft 8s 6s 18 22 mph 1017.2mb 53f 56f
Tue 06/27 11:50pm 5.5ft 8s 6s 16 18 mph 1017.4mb 53f 55f
10:50pm 5.5ft 8s 6s 18 20 mph 1017.4mb 53f 56f
9:50pm 5ft 9s 6s 18 20 mph 1017.1mb 53f 56f
8:50pm 5ft 8s 6s 18 20 mph 1016.8mb 54f 55f
7:50pm 5.5ft 8s 6s 20 22 mph 1016.7mb 54f 56f
6:50pm 5ft 8s 5s 20 25 mph 1016.5mb 54f 57f
5:50pm 5.5ft 8s 6s 20 25 mph 1016.7mb 54f 57f
4:50pm 5ft 8s 6s 20 25 mph 1016.7mb 55f 57f
3:50pm 5.5ft 8s 6s 20 25 mph 1017.1mb 55f 57f
2:50pm 5ft 8s 6s 20 25 mph 1017.3mb 55f 57f
1:50pm 5.5ft 8s 6s 22 25 mph 1017.6mb 55f 57f
12:50pm 5.5ft 9s 6s 22 27 mph 1017.6mb 55f 57f
11:50am 5.5ft 8s 6s 20 25 mph 1017.6mb 54f 57f
10:50am 5ft 8s 6s 20 25 mph 1017.5mb 55f 57f
9:50am 5.5ft 9s 6s 16 20 mph 1017.7mb 55f 57f
8:50am 5ft 8s 7s 16 18 mph 1017.7mb 56f 56f
7:50am 5ft 8s 6s 13 16 mph 1017.8mb 57f 56f
6:50am 5ft 7s 7s 18 20 mph 1017.4mb 57f 55f
5:50am 4.5ft 7s 7s 11 11 mph 1017.4mb 57f 56f
4:50am 5ft 8s 8s 9 11 mph 1017.4mb 57f 56f
3:50am 5ft 8s 8s 7 9 mph 1017.5mb 57f 57f
2:50am 5ft 8s 7s 7 9 mph 1017.4mb 58f 57f
1:50am 5ft 8s 8s 7 9 mph 1017.8mb 58f 57f
12:50am 5ft 8s 8s 7 7 mph 1018mb 58f 57f
Mon 06/26 11:50pm 5ft 8s 8s 4 7 mph 1018.3mb 58f 57f
10:50pm 5ft 8s 8s 2 4 mph 1018.7mb 58f 57f
9:50pm 5ft 8s 8s  -  0 mph 1018.5mb 58f 57f
8:50pm 5ft 8s 8s 2 4 mph 1018.4mb 58f 57f
7:50pm 5ft 8s 8s 4 7 mph 1018.2mb 58f 56f
6:50pm 4.5ft 8s 7s 4 4 mph 1018.2mb 58f 56f
5:50pm 5ft 9s 8s 4 4 mph 1018.2mb 57f 56f
4:50pm 4.5ft 8s 8s 2 4 mph 1018.4mb 57f 56f
3:50pm 5ft 14s 8s 4 7 mph 1018.6mb 56f 56f
2:50pm 5ft 9s 7s 4 7 mph 1018.3mb 56f 55f
1:50pm 5ft 8s 8s 4 7 mph 1018.2mb 56f 56f
12:50pm 5ft 10s 7s 7 9 mph 1018.1mb 56f 55f
11:50am 5ft 8s 8s 9 9 mph 1017.8mb 56f 55f
10:50am 5ft 8s 7s 7 9 mph 1017.5mb 55f 55f
9:50am 5ft 14s 8s 9 11 mph 1017.5mb 56f 55f
8:50am 5ft 8s 7s 9 11 mph 1017.3mb 56f 55f
7:50am 4.5ft 8s 7s 11 13 mph 1017mb 56f 55f
6:50am 4.5ft 8s 7s 11 11 mph 1016.7mb 56f 55f
5:50am 3.5ft 14s 7s 11 13 mph 1016.2mb 56f 55f
4:50am  -   -   -  11 13 mph 1015.8mb 56f 55f
3:50am  -   -   -  11 13 mph 1015.7mb 56f 55f
2:50am  -   -   -  11 13 mph 1015.6mb 56f 55f
1:50am  -   -   -  9 9 mph 1016mb 55f 55f
12:50am  -   -   -  9 11 mph 1016.2mb 55f 55f
Sun 06/25 11:50pm  -   -   -  11 13 mph 1016.1mb 55f 55f
10:50pm  -   -   -  11 13 mph 1015.6mb 55f 55f
9:50pm  -   -   -  11 13 mph 1015.9mb 55f 55f
8:50pm  -   -   -  11 16 mph 1016.3mb 55f 55f
7:50pm  -   -   -  13 16 mph 1016mb 55f 55f
6:50pm  -   -   -  16 18 mph 1015.6mb 55f 55f
5:50pm  -   -   -  16 18 mph 1015.5mb 55f 55f
4:50pm  -   -   -  16 20 mph 1015.4mb 55f 55f
3:50pm  -   -   -  16 20 mph 1015.6mb 54f 54f
2:50pm  -   -   -  18 20 mph 1015.7mb 54f 54f
1:50pm  -   -   -  18 20 mph 1015.7mb 55f 53f
12:50pm 3ft 15s 6s 16 18 mph 1015.6mb 54f 53f
11:50am 3.5ft 15s 6s 13 16 mph 1015.1mb 54f 53f